sensor_id;sensor_type;location;lat;lon;timestamp;pressure;altitude;pressure_sealevel;temperature;humidity
79645;BME280;69117;47.148;18.954;2024-03-02T00:02:22;99796.13;;;8.15;100.00
79645;BME280;69117;47.148;18.954;2024-03-02T00:05:23;99796.94;;;8.15;100.00
79645;BME280;69117;47.148;18.954;2024-03-02T00:08:25;99790.59;;;8.08;100.00
79645;BME280;69117;47.148;18.954;2024-03-02T00:11:27;99782.41;;;8.01;100.00
79645;BME280;69117;47.148;18.954;2024-03-02T00:14:29;99789.94;;;7.96;100.00
79645;BME280;69117;47.148;18.954;2024-03-02T00:17:31;99798.09;;;7.93;100.00
79645;BME280;69117;47.148;18.954;2024-03-02T00:20:33;99788.16;;;7.87;100.00
79645;BME280;69117;47.148;18.954;2024-03-02T00:23:36;99793.69;;;7.84;100.00
79645;BME280;69117;47.148;18.954;2024-03-02T00:26:38;99775.69;;;7.79;100.00
79645;BME280;69117;47.148;18.954;2024-03-02T00:29:41;99788.16;;;7.87;100.00
79645;BME280;69117;47.148;18.954;2024-03-02T00:32:44;99786.47;;;7.86;100.00
79645;BME280;69117;47.148;18.954;2024-03-02T00:35:45;99785.91;;;7.92;100.00
79645;BME280;69117;47.148;18.954;2024-03-02T00:38:49;99788.25;;;7.95;100.00
79645;BME280;69117;47.148;18.954;2024-03-02T00:41:51;99786.59;;;7.94;100.00
79645;BME280;69117;47.148;18.954;2024-03-02T00:44:52;99783.00;;;7.95;100.00
79645;BME280;69117;47.148;18.954;2024-03-02T00:47:54;99776.91;;;7.95;100.00
79645;BME280;69117;47.148;18.954;2024-03-02T00:50:56;99778.44;;;7.97;100.00
79645;BME280;69117;47.148;18.954;2024-03-02T00:54:03;99773.31;;;7.96;100.00
79645;BME280;69117;47.148;18.954;2024-03-02T00:57:10;99761.41;;;7.92;100.00
79645;BME280;69117;47.148;18.954;2024-03-02T01:00:14;99761.69;;;7.89;100.00
79645;BME280;69117;47.148;18.954;2024-03-02T01:03:16;99766.00;;;7.90;100.00
79645;BME280;69117;47.148;18.954;2024-03-02T01:06:18;99766.69;;;7.82;100.00
79645;BME280;69117;47.148;18.954;2024-03-02T01:09:20;99779.69;;;7.84;100.00
79645;BME280;69117;47.148;18.954;2024-03-02T01:12:22;99762.69;;;7.78;100.00
79645;BME280;69117;47.148;18.954;2024-03-02T01:15:24;99770.97;;;7.83;100.00
79645;BME280;69117;47.148;18.954;2024-03-02T01:18:26;99767.53;;;7.83;100.00
79645;BME280;69117;47.148;18.954;2024-03-02T01:21:28;99770.84;;;7.85;100.00
79645;BME280;69117;47.148;18.954;2024-03-02T01:24:32;99769.59;;;7.89;100.00
79645;BME280;69117;47.148;18.954;2024-03-02T01:27:34;99764.47;;;7.87;100.00
79645;BME280;69117;47.148;18.954;2024-03-02T01:30:35;99769.47;;;7.90;100.00
79645;BME280;69117;47.148;18.954;2024-03-02T01:33:38;99759.22;;;7.87;100.00
79645;BME280;69117;47.148;18.954;2024-03-02T01:36:39;99761.97;;;7.86;100.00
79645;BME280;69117;47.148;18.954;2024-03-02T01:39:41;99761.69;;;7.89;100.00
79645;BME280;69117;47.148;18.954;2024-03-02T01:42:43;99752.44;;;7.85;100.00
79645;BME280;69117;47.148;18.954;2024-03-02T01:45:45;99741.50;;;7.79;100.00
79645;BME280;69117;47.148;18.954;2024-03-02T01:48:46;99765.44;;;7.86;100.00
79645;BME280;69117;47.148;18.954;2024-03-02T01:51:49;99757.16;;;7.81;100.00
79645;BME280;69117;47.148;18.954;2024-03-02T01:54:51;99762.25;;;7.83;100.00
79645;BME280;69117;47.148;18.954;2024-03-02T01:57:53;99762.25;;;7.83;100.00
79645;BME280;69117;47.148;18.954;2024-03-02T02:00:55;99766.16;;;7.78;100.00
79645;BME280;69117;47.148;18.954;2024-03-02T02:03:57;99774.03;;;7.78;100.00
79645;BME280;69117;47.148;18.954;2024-03-02T02:06:59;99781.66;;;7.82;100.00
79645;BME280;69117;47.148;18.954;2024-03-02T02:10:01;99783.84;;;7.86;100.00
79645;BME280;69117;47.148;18.954;2024-03-02T02:13:03;99775.66;;;7.89;100.00
79645;BME280;69117;47.148;18.954;2024-03-02T02:16:09;99786.31;;;7.97;100.00
79645;BME280;69117;47.148;18.954;2024-03-02T02:19:10;99791.16;;;8.02;100.00
79645;BME280;69117;47.148;18.954;2024-03-02T02:22:12;99788.91;;;8.07;100.00
79645;BME280;69117;47.148;18.954;2024-03-02T02:25:14;99783.66;;;8.07;100.00
79645;BME280;69117;47.148;18.954;2024-03-02T02:28:15;99787.53;;;8.13;100.00
79645;BME280;69117;47.148;18.954;2024-03-02T02:31:18;99791.69;;;8.15;100.00
79645;BME280;69117;47.148;18.954;2024-03-02T02:34:20;99782.97;;;8.15;100.00
79645;BME280;69117;47.148;18.954;2024-03-02T02:37:21;99787.78;;;8.19;100.00
79645;BME280;69117;47.148;18.954;2024-03-02T02:40:23;99778.66;;;8.23;100.00
79645;BME280;69117;47.148;18.954;2024-03-02T02:43:25;99783.75;;;8.25;100.00
79645;BME280;69117;47.148;18.954;2024-03-02T02:46:26;99769.75;;;8.24;100.00
79645;BME280;69117;47.148;18.954;2024-03-02T02:49:28;99781.00;;;8.26;100.00
79645;BME280;69117;47.148;18.954;2024-03-02T02:52:34;99789.25;;;8.32;100.00
79645;BME280;69117;47.148;18.954;2024-03-02T02:55:39;99791.88;;;8.32;100.00
79645;BME280;69117;47.148;18.954;2024-03-02T02:58:41;99786.91;;;8.29;100.00
79645;BME280;69117;47.148;18.954;2024-03-02T03:01:43;99784.44;;;8.27;100.00
79645;BME280;69117;47.148;18.954;2024-03-02T03:04:45;99790.53;;;8.27;100.00
79645;BME280;69117;47.148;18.954;2024-03-02T03:07:47;99787.06;;;8.27;100.00
79645;BME280;69117;47.148;18.954;2024-03-02T03:10:51;99788.06;;;8.26;100.00
79645;BME280;69117;47.148;18.954;2024-03-02T03:13:53;99785.56;;;8.24;100.00
79645;BME280;69117;47.148;18.954;2024-03-02T03:16:56;99783.75;;;8.25;100.00
79645;BME280;69117;47.148;18.954;2024-03-02T03:19:57;99779.47;;;8.24;100.00
79645;BME280;69117;47.148;18.954;2024-03-02T03:23:00;99776.97;;;8.22;100.00
79645;BME280;69117;47.148;18.954;2024-03-02T03:26:01;99781.13;;;8.25;100.00
79645;BME280;69117;47.148;18.954;2024-03-02T03:29:03;99780.56;;;8.21;100.00
79645;BME280;69117;47.148;18.954;2024-03-02T03:32:05;99782.22;;;8.22;100.00
79645;BME280;69117;47.148;18.954;2024-03-02T03:35:08;99791.09;;;8.21;100.00
79645;BME280;69117;47.148;18.954;2024-03-02T03:38:10;99799.69;;;8.23;100.00
79645;BME280;69117;47.148;18.954;2024-03-02T03:41:12;99802.31;;;8.23;100.00
79645;BME280;69117;47.148;18.954;2024-03-02T03:44:14;99790.56;;;8.18;100.00
79645;BME280;69117;47.148;18.954;2024-03-02T03:47:16;99791.50;;;8.17;100.00
79645;BME280;69117;47.148;18.954;2024-03-02T03:50:17;99800.09;;;8.19;100.00
79645;BME280;69117;47.148;18.954;2024-03-02T03:53:19;99798.75;;;8.15;100.00
79645;BME280;69117;47.148;18.954;2024-03-02T03:56:21;99806.34;;;8.18;100.00
79645;BME280;69117;47.148;18.954;2024-03-02T03:59:22;99789.28;;;8.22;100.00
79645;BME280;69117;47.148;18.954;2024-03-02T04:02:25;99790.41;;;8.19;100.00
79645;BME280;69117;47.148;18.954;2024-03-02T04:05:27;99798.00;;;8.22;100.00
79645;BME280;69117;47.148;18.954;2024-03-02T04:08:28;99796.50;;;8.20;100.00
79645;BME280;69117;47.148;18.954;2024-03-02T04:11:30;99805.25;;;8.20;100.00
79645;BME280;69117;47.148;18.954;2024-03-02T04:14:32;99805.25;;;8.20;100.00
79645;BME280;69117;47.148;18.954;2024-03-02T04:17:34;99804.66;;;8.17;100.00
79645;BME280;69117;47.148;18.954;2024-03-02T04:20:37;99811.75;;;8.16;100.00
79645;BME280;69117;47.148;18.954;2024-03-02T04:23:39;99812.72;;;8.15;100.00
79645;BME280;69117;47.148;18.954;2024-03-02T04:26:40;99806.91;;;8.12;100.00
79645;BME280;69117;47.148;18.954;2024-03-02T04:29:42;99811.19;;;8.13;100.00
79645;BME280;69117;47.148;18.954;2024-03-02T04:32:43;99820.75;;;8.14;100.00
79645;BME280;69117;47.148;18.954;2024-03-02T04:35:48;99821.59;;;8.14;100.00
79645;BME280;69117;47.148;18.954;2024-03-02T04:38:49;99813.00;;;8.12;100.00
79645;BME280;69117;47.148;18.954;2024-03-02T04:41:51;99811.47;;;8.10;100.00
79645;BME280;69117;47.148;18.954;2024-03-02T04:44:52;99823.94;;;8.17;100.00
79645;BME280;69117;47.148;18.954;2024-03-02T04:47:54;99821.69;;;8.22;100.00
79645;BME280;69117;47.148;18.954;2024-03-02T04:50:56;99823.38;;;8.23;100.00
79645;BME280;69117;47.148;18.954;2024-03-02T04:53:57;99821.56;;;8.24;100.00
79645;BME280;69117;47.148;18.954;2024-03-02T04:56:59;99814.91;;;8.20;100.00
79645;BME280;69117;47.148;18.954;2024-03-02T05:00:01;99814.91;;;8.20;100.00
79645;BME280;69117;47.148;18.954;2024-03-02T05:03:03;99818.25;;;8.22;100.00
79645;BME280;69117;47.148;18.954;2024-03-02T05:06:05;99823.09;;;8.26;100.00
79645;BME280;69117;47.148;18.954;2024-03-02T05:09:07;99809.09;;;8.26;100.00
79645;BME280;69117;47.148;18.954;2024-03-02T05:12:09;99821.41;;;8.25;100.00
79645;BME280;69117;47.148;18.954;2024-03-02T05:15:17;99828.47;;;8.25;100.00
79645;BME280;69117;47.148;18.954;2024-03-02T05:18:19;99822.56;;;8.23;100.00
79645;BME280;69117;47.148;18.954;2024-03-02T05:21:20;99838.72;;;8.28;100.00
79645;BME280;69117;47.148;18.954;2024-03-02T05:24:22;99836.25;;;8.26;100.00
79645;BME280;69117;47.148;18.954;2024-03-02T05:27:24;99829.63;;;8.13;100.00
79645;BME280;69117;47.148;18.954;2024-03-02T05:30:25;99834.31;;;8.19;100.00
79645;BME280;69117;47.148;18.954;2024-03-02T05:33:27;99835.28;;;8.18;100.00
79645;BME280;69117;47.148;18.954;2024-03-02T05:36:30;99848.28;;;8.19;100.00
79645;BME280;69117;47.148;18.954;2024-03-02T05:39:31;99836.41;;;8.15;100.00
79645;BME280;69117;47.148;18.954;2024-03-02T05:42:33;99843.03;;;8.19;100.00
79645;BME280;69117;47.148;18.954;2024-03-02T05:45:35;99844.72;;;8.20;100.00
79645;BME280;69117;47.148;18.954;2024-03-02T05:48:38;99840.56;;;8.18;100.00
79645;BME280;69117;47.148;18.954;2024-03-02T05:51:39;99854.25;;;8.21;100.00
79645;BME280;69117;47.148;18.954;2024-03-02T05:54:41;99845.38;;;8.22;100.00
79645;BME280;69117;47.148;18.954;2024-03-02T05:57:43;99861.44;;;8.29;100.00
79645;BME280;69117;47.148;18.954;2024-03-02T06:00:44;99864.22;;;8.27;100.00
79645;BME280;69117;47.148;18.954;2024-03-02T06:03:46;99867.53;;;8.30;100.00
79645;BME280;69117;47.148;18.954;2024-03-02T06:06:48;99862.56;;;8.26;100.00
79645;BME280;69117;47.148;18.954;2024-03-02T06:09:51;99872.66;;;8.31;100.00
79645;BME280;69117;47.148;18.954;2024-03-02T06:12:53;99866.72;;;8.29;100.00
79645;BME280;69117;47.148;18.954;2024-03-02T06:15:55;99872.53;;;8.33;100.00
79645;BME280;69117;47.148;18.954;2024-03-02T06:18:57;99871.53;;;8.34;100.00
79645;BME280;69117;47.148;18.954;2024-03-02T06:22:02;99874.16;;;8.34;100.00
79645;BME280;69117;47.148;18.954;2024-03-02T06:25:04;99876.50;;;8.37;100.00
79645;BME280;69117;47.148;18.954;2024-03-02T06:28:05;99869.59;;;8.36;100.00
79645;BME280;69117;47.148;18.954;2024-03-02T06:31:09;99871.41;;;8.35;100.00
79645;BME280;69117;47.148;18.954;2024-03-02T06:34:11;99882.34;;;8.40;100.00
79645;BME280;69117;47.148;18.954;2024-03-02T06:37:13;99876.13;;;8.41;100.00
79645;BME280;69117;47.148;18.954;2024-03-02T06:40:14;99874.31;;;8.42;100.00
79645;BME280;69117;47.148;18.954;2024-03-02T06:43:16;99878.31;;;8.46;100.00
79645;BME280;69117;47.148;18.954;2024-03-02T06:46:18;99879.31;;;8.45;100.00
79645;BME280;69117;47.148;18.954;2024-03-02T06:49:20;99880.81;;;8.47;100.00
79645;BME280;69117;47.148;18.954;2024-03-02T06:52:21;99875.41;;;8.49;100.00
79645;BME280;69117;47.148;18.954;2024-03-02T06:55:25;99879.56;;;8.52;100.00
79645;BME280;69117;47.148;18.954;2024-03-02T06:58:27;99885.78;;;8.60;100.00
79645;BME280;69117;47.148;18.954;2024-03-02T07:01:29;99886.47;;;8.62;100.00
79645;BME280;69117;47.148;18.954;2024-03-02T07:04:30;99883.69;;;8.64;100.00
79645;BME280;69117;47.148;18.954;2024-03-02T07:07:32;99875.50;;;8.67;100.00
79645;BME280;69117;47.148;18.954;2024-03-02T07:10:34;99882.28;;;8.69;100.00
79645;BME280;69117;47.148;18.954;2024-03-02T07:13:36;99884.88;;;8.79;100.00
79645;BME280;69117;47.148;18.954;2024-03-02T07:16:38;99886.53;;;8.80;100.00
79645;BME280;69117;47.148;18.954;2024-03-02T07:19:41;99890.38;;;8.86;100.00
79645;BME280;69117;47.148;18.954;2024-03-02T07:22:43;99888.44;;;8.88;100.00
79645;BME280;69117;47.148;18.954;2024-03-02T07:25:45;99889.22;;;8.98;100.00
79645;BME280;69117;47.148;18.954;2024-03-02T07:28:50;99900.84;;;9.05;100.00
79645;BME280;69117;47.148;18.954;2024-03-02T07:31:52;99889.31;;;9.06;100.00
79645;BME280;69117;47.148;18.954;2024-03-02T07:34:54;99896.34;;;9.15;100.00
79645;BME280;69117;47.148;18.954;2024-03-02T07:37:57;99898.59;;;9.10;100.00
79645;BME280;69117;47.148;18.954;2024-03-02T07:40:59;99914.97;;;9.14;100.00
79645;BME280;69117;47.148;18.954;2024-03-02T07:44:01;99906.38;;;9.12;100.00
79645;BME280;69117;47.148;18.954;2024-03-02T07:47:03;99911.75;;;9.10;100.00
79645;BME280;69117;47.148;18.954;2024-03-02T07:50:05;99907.88;;;9.14;100.00
79645;BME280;69117;47.148;18.954;2024-03-02T07:53:10;99914.38;;;9.20;100.00
79645;BME280;69117;47.148;18.954;2024-03-02T07:56:12;99912.31;;;9.14;100.00
79645;BME280;69117;47.148;18.954;2024-03-02T07:59:14;99916.25;;;9.00;100.00
79645;BME280;69117;47.148;18.954;2024-03-02T08:02:16;99919.25;;;9.15;100.00
79645;BME280;69117;47.148;18.954;2024-03-02T08:05:18;99922.53;;;9.27;100.00
79645;BME280;69117;47.148;18.954;2024-03-02T08:08:20;99922.94;;;9.22;100.00
79645;BME280;69117;47.148;18.954;2024-03-02T08:11:22;99922.28;;;9.20;100.00
79645;BME280;69117;47.148;18.954;2024-03-02T08:14:24;99925.09;;;9.36;100.00
79645;BME280;69117;47.148;18.954;2024-03-02T08:17:25;99916.66;;;9.33;100.00
79645;BME280;69117;47.148;18.954;2024-03-02T08:20:27;99924.41;;;9.34;100.00
79645;BME280;69117;47.148;18.954;2024-03-02T08:23:29;99920.25;;;9.32;100.00
79645;BME280;69117;47.148;18.954;2024-03-02T08:26:31;99912.09;;;9.35;100.00
79645;BME280;69117;47.148;18.954;2024-03-02T08:29:33;99915.91;;;9.40;100.00
79645;BME280;69117;47.148;18.954;2024-03-02T08:32:35;99919.22;;;9.43;100.00
79645;BME280;69117;47.148;18.954;2024-03-02T08:35:36;99925.50;;;9.42;100.00
79645;BME280;69117;47.148;18.954;2024-03-02T08:38:38;99924.69;;;9.31;100.00
79645;BME280;69117;47.148;18.954;2024-03-02T08:41:41;99922.41;;;9.18;100.00
79645;BME280;69117;47.148;18.954;2024-03-02T08:44:44;99918.50;;;9.23;100.00
79645;BME280;69117;47.148;18.954;2024-03-02T08:47:46;99921.81;;;9.25;100.00
79645;BME280;69117;47.148;18.954;2024-03-02T08:50:48;99928.38;;;9.21;100.00
79645;BME280;69117;47.148;18.954;2024-03-02T08:53:50;99916.16;;;9.20;100.00
79645;BME280;69117;47.148;18.954;2024-03-02T08:56:52;99928.47;;;9.29;100.00
79645;BME280;69117;47.148;18.954;2024-03-02T08:59:54;99922.63;;;9.35;100.00
79645;BME280;69117;47.148;18.954;2024-03-02T09:02:56;99926.50;;;9.31;100.00
79645;BME280;69117;47.148;18.954;2024-03-02T09:05:58;99926.81;;;9.28;100.00
79645;BME280;69117;47.148;18.954;2024-03-02T09:08:59;99926.50;;;9.31;100.00
79645;BME280;69117;47.148;18.954;2024-03-02T09:12:01;99928.63;;;9.27;100.00
79645;BME280;69117;47.148;18.954;2024-03-02T09:15:03;99933.88;;;9.27;100.00
79645;BME280;69117;47.148;18.954;2024-03-02T09:18:05;99933.88;;;9.27;100.00
79645;BME280;69117;47.148;18.954;2024-03-02T09:21:08;99937.75;;;9.33;100.00
79645;BME280;69117;47.148;18.954;2024-03-02T09:24:10;99938.28;;;9.36;100.00
79645;BME280;69117;47.148;18.954;2024-03-02T09:27:11;99935.50;;;9.38;100.00
79645;BME280;69117;47.148;18.954;2024-03-02T09:30:13;99938.22;;;9.18;100.00
79645;BME280;69117;47.148;18.954;2024-03-02T09:33:15;99930.56;;;9.25;100.00
79645;BME280;69117;47.148;18.954;2024-03-02T09:36:19;99937.06;;;9.31;100.00
79645;BME280;69117;47.148;18.954;2024-03-02T09:39:21;99940.09;;;9.36;100.00
79645;BME280;69117;47.148;18.954;2024-03-02T09:42:24;99929.69;;;9.34;100.00
79645;BME280;69117;47.148;18.954;2024-03-02T09:45:26;99938.28;;;9.36;100.00
79645;BME280;69117;47.148;18.954;2024-03-02T09:48:29;99938.44;;;9.35;100.00
79645;BME280;69117;47.148;18.954;2024-03-02T09:51:31;99935.22;;;9.41;100.00
79645;BME280;69117;47.148;18.954;2024-03-02T09:54:33;99937.00;;;9.40;100.00
79645;BME280;69117;47.148;18.954;2024-03-02T09:57:35;99934.53;;;9.39;100.00
79645;BME280;69117;47.148;18.954;2024-03-02T10:00:39;99926.25;;;9.52;100.00
79645;BME280;69117;47.148;18.954;2024-03-02T10:03:40;99932.16;;;9.63;100.00
79645;BME280;69117;47.148;18.954;2024-03-02T10:06:43;99934.09;;;9.61;100.00
79645;BME280;69117;47.148;18.954;2024-03-02T10:09:46;99930.13;;;9.57;100.00
79645;BME280;69117;47.148;18.954;2024-03-02T10:12:49;99935.81;;;9.53;100.00
79645;BME280;69117;47.148;18.954;2024-03-02T10:16:12;99930.59;;;9.43;100.00
79645;BME280;69117;47.148;18.954;2024-03-02T10:19:32;99929.41;;;9.55;100.00
79645;BME280;69117;47.148;18.954;2024-03-02T10:22:34;99925.22;;;9.62;100.00
79645;BME280;69117;47.148;18.954;2024-03-02T10:25:36;99926.41;;;9.68;100.00
79645;BME280;69117;47.148;18.954;2024-03-02T10:28:51;99934.41;;;9.58;100.00
79645;BME280;69117;47.148;18.954;2024-03-02T10:32:02;99929.34;;;9.65;100.00
79645;BME280;69117;47.148;18.954;2024-03-02T10:35:05;99928.81;;;9.61;100.00
79645;BME280;69117;47.148;18.954;2024-03-02T10:38:07;99927.47;;;9.57;100.00
79645;BME280;69117;47.148;18.954;2024-03-02T10:41:09;99933.16;;;9.80;100.00
79645;BME280;69117;47.148;18.954;2024-03-02T10:44:11;99928.78;;;9.89;100.00
79645;BME280;69117;47.148;18.954;2024-03-02T10:47:15;99929.84;;;9.96;100.00
79645;BME280;69117;47.148;18.954;2024-03-02T10:50:19;99926.00;;;10.08;100.00
79645;BME280;69117;47.148;18.954;2024-03-02T10:53:21;99917.09;;;10.27;100.00
79645;BME280;69117;47.148;18.954;2024-03-02T10:56:28;99914.84;;;10.59;100.00
79645;BME280;69117;47.148;18.954;2024-03-02T10:59:35;99925.63;;;10.65;100.00
79645;BME280;69117;47.148;18.954;2024-03-02T11:02:38;99918.31;;;10.59;100.00
79645;BME280;69117;47.148;18.954;2024-03-02T11:05:43;99922.25;;;10.55;100.00
79645;BME280;69117;47.148;18.954;2024-03-02T11:08:46;99920.19;;;10.67;100.00
79645;BME280;69117;47.148;18.954;2024-03-02T11:11:57;99917.22;;;10.70;100.00
79645;BME280;69117;47.148;18.954;2024-03-02T11:15:03;99920.47;;;10.38;100.00
79645;BME280;69117;47.148;18.954;2024-03-02T11:18:07;99910.47;;;10.49;100.00
79645;BME280;69117;47.148;18.954;2024-03-02T11:21:11;99914.19;;;10.57;100.00
79645;BME280;69117;47.148;18.954;2024-03-02T11:24:33;99920.03;;;10.06;100.00
79645;BME280;69117;47.148;18.954;2024-03-02T11:33:48;99916.84;;;10.21;100.00
79645;BME280;69117;47.148;18.954;2024-03-02T11:36:50;99917.31;;;9.98;100.00
79645;BME280;69117;47.148;18.954;2024-03-02T11:39:52;99918.22;;;9.89;100.00
79645;BME280;69117;47.148;18.954;2024-03-02T11:42:54;99919.59;;;9.93;100.00
79645;BME280;69117;47.148;18.954;2024-03-02T11:46:00;99910.00;;;9.92;100.00
79645;BME280;69117;47.148;18.954;2024-03-02T11:49:06;99917.63;;;9.59;100.00
79645;BME280;69117;47.148;18.954;2024-03-02T11:52:10;99913.25;;;9.50;100.00
79645;BME280;69117;47.148;18.954;2024-03-02T11:55:12;99914.13;;;9.59;100.00
79645;BME280;69117;47.148;18.954;2024-03-02T11:58:16;99921.53;;;9.73;100.00
79645;BME280;69117;47.148;18.954;2024-03-02T12:01:19;99912.66;;;9.74;100.00
79645;BME280;69117;47.148;18.954;2024-03-02T12:04:21;99917.34;;;9.80;100.00
79645;BME280;69117;47.148;18.954;2024-03-02T12:07:24;99921.47;;;9.83;100.00
79645;BME280;69117;47.148;18.954;2024-03-02T12:10:27;99916.69;;;9.51;100.00
79645;BME280;69117;47.148;18.954;2024-03-02T12:13:28;99913.06;;;9.52;100.00
79645;BME280;69117;47.148;18.954;2024-03-02T12:16:31;99914.38;;;9.66;100.00
79645;BME280;69117;47.148;18.954;2024-03-02T12:19:33;99916.78;;;9.77;100.00
79645;BME280;69117;47.148;18.954;2024-03-02T12:22:35;99914.22;;;9.67;100.00
79645;BME280;69117;47.148;18.954;2024-03-02T12:25:37;99915.88;;;9.68;100.00
79645;BME280;69117;47.148;18.954;2024-03-02T12:28:38;99922.09;;;9.49;100.00
79645;BME280;69117;47.148;18.954;2024-03-02T12:31:41;99923.19;;;9.56;100.00
79645;BME280;69117;47.148;18.954;2024-03-02T12:34:46;99923.09;;;9.48;100.00
79645;BME280;69117;47.148;18.954;2024-03-02T12:37:49;99913.00;;;9.61;100.00
79645;BME280;69117;47.148;18.954;2024-03-02T12:40:51;99903.38;;;9.70;100.00
79645;BME280;69117;47.148;18.954;2024-03-02T12:43:54;99915.38;;;9.37;100.00
79645;BME280;69117;47.148;18.954;2024-03-02T12:46:56;99913.13;;;9.42;100.00
79645;BME280;69117;47.148;18.954;2024-03-02T12:50:04;99923.81;;;9.40;100.00
79645;BME280;69117;47.148;18.954;2024-03-02T12:53:06;99926.13;;;9.53;100.00
79645;BME280;69117;47.148;18.954;2024-03-02T12:56:08;99923.84;;;9.58;100.00
79645;BME280;69117;47.148;18.954;2024-03-02T12:59:10;99917.59;;;9.42;100.00
79645;BME280;69117;47.148;18.954;2024-03-02T13:02:19;99910.22;;;9.45;100.00
79645;BME280;69117;47.148;18.954;2024-03-02T13:05:21;99910.53;;;9.60;100.00
79645;BME280;69117;47.148;18.954;2024-03-02T13:08:23;99899.88;;;9.52;100.00
79645;BME280;69117;47.148;18.954;2024-03-02T13:11:25;99915.03;;;9.50;100.00
79645;BME280;69117;47.148;18.954;2024-03-02T13:14:27;99911.44;;;9.51;100.00
79645;BME280;69117;47.148;18.954;2024-03-02T13:17:28;99914.56;;;9.36;100.00
79645;BME280;69117;47.148;18.954;2024-03-02T13:20:36;99918.81;;;9.47;100.00
79645;BME280;69117;47.148;18.954;2024-03-02T13:23:38;99917.13;;;9.46;100.00
79645;BME280;69117;47.148;18.954;2024-03-02T13:26:40;99908.63;;;9.52;100.00
79645;BME280;69117;47.148;18.954;2024-03-02T13:29:42;99909.44;;;9.35;100.00
79645;BME280;69117;47.148;18.954;2024-03-02T13:32:44;99919.47;;;9.49;100.00
79645;BME280;69117;47.148;18.954;2024-03-02T13:35:45;99920.25;;;9.59;100.00
79645;BME280;69117;47.148;18.954;2024-03-02T13:38:47;99922.50;;;9.54;100.00
79645;BME280;69117;47.148;18.954;2024-03-02T13:41:49;99919.22;;;9.43;100.00
79645;BME280;69117;47.148;18.954;2024-03-02T13:44:54;99916.50;;;9.34;100.00
79645;BME280;69117;47.148;18.954;2024-03-02T13:47:56;99926.75;;;9.37;100.00
79645;BME280;69117;47.148;18.954;2024-03-02T13:50:58;99926.50;;;9.31;100.00
79645;BME280;69117;47.148;18.954;2024-03-02T13:53:59;99916.38;;;9.36;100.00
79645;BME280;69117;47.148;18.954;2024-03-02T13:57:01;99922.63;;;9.35;100.00
79645;BME280;69117;47.148;18.954;2024-03-02T14:00:04;99923.00;;;9.40;100.00
79645;BME280;69117;47.148;18.954;2024-03-02T14:03:12;99932.28;;;9.44;100.00
79645;BME280;69117;47.148;18.954;2024-03-02T14:06:13;99925.63;;;9.40;100.00
79645;BME280;69117;47.148;18.954;2024-03-02T14:09:15;99927.25;;;9.51;100.00
79645;BME280;69117;47.148;18.954;2024-03-02T14:12:17;99934.31;;;9.68;100.00
79645;BME280;69117;47.148;18.954;2024-03-02T14:15:19;99929.81;;;9.60;100.00
79645;BME280;69117;47.148;18.954;2024-03-02T14:18:22;99929.13;;;9.58;100.00
79645;BME280;69117;47.148;18.954;2024-03-02T14:21:24;99924.06;;;9.65;100.00
79645;BME280;69117;47.148;18.954;2024-03-02T14:24:26;99929.00;;;9.78;100.00
79645;BME280;69117;47.148;18.954;2024-03-02T14:27:29;99934.88;;;9.72;100.00
79645;BME280;69117;47.148;18.954;2024-03-02T14:30:51;99933.47;;;9.77;100.00
79645;BME280;69117;47.148;18.954;2024-03-02T14:33:53;99918.59;;;9.76;100.00
79645;BME280;69117;47.148;18.954;2024-03-02T14:36:55;99922.06;;;9.77;100.00
79645;BME280;69117;47.148;18.954;2024-03-02T14:39:57;99921.75;;;9.98;100.00
79645;BME280;69117;47.148;18.954;2024-03-02T14:43:00;99920.09;;;10.15;100.00
79645;BME280;69117;47.148;18.954;2024-03-02T14:46:02;99928.94;;;10.05;100.00
79645;BME280;69117;47.148;18.954;2024-03-02T14:49:04;99927.34;;;10.13;100.00
79645;BME280;69117;47.148;18.954;2024-03-02T14:52:06;99935.13;;;10.14;100.00
79645;BME280;69117;47.148;18.954;2024-03-02T14:55:09;99935.78;;;10.16;100.00
79645;BME280;69117;47.148;18.954;2024-03-02T14:58:11;99926.69;;;10.11;100.00
79645;BME280;69117;47.148;18.954;2024-03-02T15:01:13;99937.75;;;9.96;100.00
79645;BME280;69117;47.148;18.954;2024-03-02T15:04:15;99932.09;;;9.73;100.00
79645;BME280;69117;47.148;18.954;2024-03-02T15:07:22;99943.84;;;9.79;100.00
79645;BME280;69117;47.148;18.954;2024-03-02T15:10:23;99934.03;;;9.89;100.00
79645;BME280;69117;47.148;18.954;2024-03-02T15:13:25;99935.72;;;9.72;100.00
79645;BME280;69117;47.148;18.954;2024-03-02T15:16:28;99936.09;;;9.77;100.00
79645;BME280;69117;47.148;18.954;2024-03-02T15:19:30;99932.91;;;9.74;100.00
79645;BME280;69117;47.148;18.954;2024-03-02T15:22:32;99927.50;;;9.75;100.00
79645;BME280;69117;47.148;18.954;2024-03-02T15:25:33;99940.78;;;9.83;100.00
79645;BME280;69117;47.148;18.954;2024-03-02T15:28:35;99942.19;;;9.78;100.00
79645;BME280;69117;47.148;18.954;2024-03-02T15:31:37;99934.66;;;9.83;100.00
79645;BME280;69117;47.148;18.954;2024-03-02T15:34:38;99930.28;;;9.92;100.00
79645;BME280;69117;47.148;18.954;2024-03-02T15:37:40;99944.09;;;10.03;100.00
79645;BME280;69117;47.148;18.954;2024-03-02T15:40:42;99936.47;;;9.82;100.00
79645;BME280;69117;47.148;18.954;2024-03-02T15:43:44;99934.03;;;9.89;100.00
79645;BME280;69117;47.148;18.954;2024-03-02T15:46:45;99937.44;;;9.81;100.00
79645;BME280;69117;47.148;18.954;2024-03-02T15:49:47;99938.19;;;9.74;100.00
79645;BME280;69117;47.148;18.954;2024-03-02T15:52:50;99929.31;;;9.75;100.00
79645;BME280;69117;47.148;18.954;2024-03-02T15:55:53;99935.81;;;9.80;100.00
79645;BME280;69117;47.148;18.954;2024-03-02T15:58:55;99926.06;;;9.81;100.00
79645;BME280;69117;47.148;18.954;2024-03-02T16:01:56;99932.69;;;9.67;100.00